sensor_id;sensor_type;location;lat;lon;timestamp;P1;durP1;ratioP1;P2;durP2;ratioP2
82711;SDS011;72433;41.992;21.438;2024-02-23T00:00:43;32.35;;;22.25;;
82711;SDS011;72433;41.992;21.438;2024-02-23T00:03:09;36.95;;;22.10;;
82711;SDS011;72433;41.992;21.438;2024-02-23T00:05:35;36.70;;;23.63;;
82711;SDS011;72433;41.992;21.438;2024-02-23T00:08:02;33.50;;;23.50;;
82711;SDS011;72433;41.992;21.438;2024-02-23T00:10:28;37.03;;;22.98;;
82711;SDS011;72433;41.992;21.438;2024-02-23T00:12:54;36.85;;;22.92;;
82711;SDS011;72433;41.992;21.438;2024-02-23T00:15:20;39.75;;;24.90;;
82711;SDS011;72433;41.992;21.438;2024-02-23T00:17:49;41.60;;;25.08;;
82711;SDS011;72433;41.992;21.438;2024-02-23T00:20:15;40.08;;;23.98;;
82711;SDS011;72433;41.992;21.438;2024-02-23T00:22:43;40.03;;;25.08;;
82711;SDS011;72433;41.992;21.438;2024-02-23T00:25:09;37.65;;;24.50;;
82711;SDS011;72433;41.992;21.438;2024-02-23T00:27:35;37.67;;;24.27;;
82711;SDS011;72433;41.992;21.438;2024-02-23T00:30:01;37.22;;;23.65;;
82711;SDS011;72433;41.992;21.438;2024-02-23T00:32:27;38.13;;;25.10;;
82711;SDS011;72433;41.992;21.438;2024-02-23T00:34:54;46.15;;;26.00;;
82711;SDS011;72433;41.992;21.438;2024-02-23T00:37:20;37.35;;;23.40;;
82711;SDS011;72433;41.992;21.438;2024-02-23T00:39:46;40.72;;;26.15;;
82711;SDS011;72433;41.992;21.438;2024-02-23T00:42:12;38.58;;;25.80;;
82711;SDS011;72433;41.992;21.438;2024-02-23T00:44:38;41.50;;;25.15;;
82711;SDS011;72433;41.992;21.438;2024-02-23T00:47:04;43.95;;;24.35;;
82711;SDS011;72433;41.992;21.438;2024-02-23T00:49:30;43.63;;;24.60;;
82711;SDS011;72433;41.992;21.438;2024-02-23T00:51:56;37.45;;;24.92;;
82711;SDS011;72433;41.992;21.438;2024-02-23T00:54:22;36.85;;;24.08;;
82711;SDS011;72433;41.992;21.438;2024-02-23T00:56:49;41.53;;;25.10;;
82711;SDS011;72433;41.992;21.438;2024-02-23T00:59:15;41.13;;;26.05;;
82711;SDS011;72433;41.992;21.438;2024-02-23T01:01:41;36.33;;;23.60;;
82711;SDS011;72433;41.992;21.438;2024-02-23T01:04:07;38.95;;;25.00;;
82711;SDS011;72433;41.992;21.438;2024-02-23T01:06:33;38.83;;;25.17;;
82711;SDS011;72433;41.992;21.438;2024-02-23T01:08:59;39.33;;;25.48;;
82711;SDS011;72433;41.992;21.438;2024-02-23T01:11:25;39.90;;;24.88;;
82711;SDS011;72433;41.992;21.438;2024-02-23T01:13:51;35.92;;;23.58;;
82711;SDS011;72433;41.992;21.438;2024-02-23T01:16:17;38.08;;;23.33;;
82711;SDS011;72433;41.992;21.438;2024-02-23T01:18:43;37.13;;;23.27;;
82711;SDS011;72433;41.992;21.438;2024-02-23T01:21:09;38.83;;;24.75;;
82711;SDS011;72433;41.992;21.438;2024-02-23T01:23:36;39.97;;;23.25;;
82711;SDS011;72433;41.992;21.438;2024-02-23T01:26:02;40.95;;;24.58;;
82711;SDS011;72433;41.992;21.438;2024-02-23T01:28:28;37.88;;;24.00;;
82711;SDS011;72433;41.992;21.438;2024-02-23T01:30:54;39.17;;;24.38;;
82711;SDS011;72433;41.992;21.438;2024-02-23T01:33:20;37.92;;;24.58;;
82711;SDS011;72433;41.992;21.438;2024-02-23T01:35:46;35.10;;;23.98;;
82711;SDS011;72433;41.992;21.438;2024-02-23T01:38:12;36.60;;;24.35;;
82711;SDS011;72433;41.992;21.438;2024-02-23T01:40:45;34.65;;;21.70;;
82711;SDS011;72433;41.992;21.438;2024-02-23T01:43:12;40.38;;;26.48;;
82711;SDS011;72433;41.992;21.438;2024-02-23T01:45:38;38.72;;;25.02;;
82711;SDS011;72433;41.992;21.438;2024-02-23T01:48:04;40.83;;;25.77;;
82711;SDS011;72433;41.992;21.438;2024-02-23T01:50:30;37.17;;;23.38;;
82711;SDS011;72433;41.992;21.438;2024-02-23T01:52:57;38.80;;;25.05;;
82711;SDS011;72433;41.992;21.438;2024-02-23T01:55:25;38.67;;;25.17;;
82711;SDS011;72433;41.992;21.438;2024-02-23T01:57:52;41.05;;;25.33;;
82711;SDS011;72433;41.992;21.438;2024-02-23T02:00:18;40.28;;;23.52;;
82711;SDS011;72433;41.992;21.438;2024-02-23T02:02:46;40.45;;;23.80;;
82711;SDS011;72433;41.992;21.438;2024-02-23T02:05:12;40.35;;;25.63;;
82711;SDS011;72433;41.992;21.438;2024-02-23T02:07:40;39.15;;;24.33;;
82711;SDS011;72433;41.992;21.438;2024-02-23T02:10:09;38.80;;;23.40;;
82711;SDS011;72433;41.992;21.438;2024-02-23T02:12:35;39.10;;;25.08;;
82711;SDS011;72433;41.992;21.438;2024-02-23T02:15:02;38.80;;;25.15;;
82711;SDS011;72433;41.992;21.438;2024-02-23T02:17:28;40.30;;;25.45;;
82711;SDS011;72433;41.992;21.438;2024-02-23T02:19:54;40.90;;;24.42;;
82711;SDS011;72433;41.992;21.438;2024-02-23T02:22:20;38.85;;;24.48;;
82711;SDS011;72433;41.992;21.438;2024-02-23T02:24:47;41.38;;;24.88;;
82711;SDS011;72433;41.992;21.438;2024-02-23T02:27:13;35.58;;;23.88;;
82711;SDS011;72433;41.992;21.438;2024-02-23T02:29:39;39.35;;;24.55;;
82711;SDS011;72433;41.992;21.438;2024-02-23T02:32:05;43.15;;;24.48;;
82711;SDS011;72433;41.992;21.438;2024-02-23T02:34:32;41.00;;;24.58;;
82711;SDS011;72433;41.992;21.438;2024-02-23T02:36:59;36.38;;;24.42;;
82711;SDS011;72433;41.992;21.438;2024-02-23T02:39:25;38.90;;;24.40;;
82711;SDS011;72433;41.992;21.438;2024-02-23T02:41:51;40.28;;;23.92;;
82711;SDS011;72433;41.992;21.438;2024-02-23T02:44:18;37.97;;;23.42;;
82711;SDS011;72433;41.992;21.438;2024-02-23T02:46:44;34.42;;;23.77;;
82711;SDS011;72433;41.992;21.438;2024-02-23T02:49:11;40.45;;;24.33;;
82711;SDS011;72433;41.992;21.438;2024-02-23T02:51:37;39.03;;;24.73;;
82711;SDS011;72433;41.992;21.438;2024-02-23T02:54:04;40.22;;;23.83;;
82711;SDS011;72433;41.992;21.438;2024-02-23T02:56:30;41.28;;;24.20;;
82711;SDS011;72433;41.992;21.438;2024-02-23T02:58:56;36.95;;;23.77;;
82711;SDS011;72433;41.992;21.438;2024-02-23T03:01:22;35.60;;;22.35;;
82711;SDS011;72433;41.992;21.438;2024-02-23T03:03:48;36.70;;;23.30;;
82711;SDS011;72433;41.992;21.438;2024-02-23T03:06:15;36.40;;;23.88;;
82711;SDS011;72433;41.992;21.438;2024-02-23T03:08:44;46.17;;;24.60;;
82711;SDS011;72433;41.992;21.438;2024-02-23T03:11:10;40.42;;;24.15;;
82711;SDS011;72433;41.992;21.438;2024-02-23T03:13:37;37.15;;;22.55;;
82711;SDS011;72433;41.992;21.438;2024-02-23T03:16:03;40.45;;;23.20;;
82711;SDS011;72433;41.992;21.438;2024-02-23T03:18:29;40.92;;;23.83;;
82711;SDS011;72433;41.992;21.438;2024-02-23T03:20:55;38.28;;;24.48;;
82711;SDS011;72433;41.992;21.438;2024-02-23T03:23:21;34.78;;;22.58;;
82711;SDS011;72433;41.992;21.438;2024-02-23T03:25:48;38.17;;;23.45;;
82711;SDS011;72433;41.992;21.438;2024-02-23T03:28:14;33.78;;;22.95;;
82711;SDS011;72433;41.992;21.438;2024-02-23T03:30:40;36.10;;;22.92;;
82711;SDS011;72433;41.992;21.438;2024-02-23T03:33:06;35.15;;;22.98;;
82711;SDS011;72433;41.992;21.438;2024-02-23T03:35:33;36.28;;;23.20;;
82711;SDS011;72433;41.992;21.438;2024-02-23T03:37:59;33.65;;;21.70;;
82711;SDS011;72433;41.992;21.438;2024-02-23T03:40:25;36.50;;;22.67;;
82711;SDS011;72433;41.992;21.438;2024-02-23T03:42:51;34.22;;;22.75;;
82711;SDS011;72433;41.992;21.438;2024-02-23T03:45:17;33.72;;;21.85;;
82711;SDS011;72433;41.992;21.438;2024-02-23T03:47:43;35.40;;;22.42;;
82711;SDS011;72433;41.992;21.438;2024-02-23T03:50:09;34.00;;;22.02;;
82711;SDS011;72433;41.992;21.438;2024-02-23T03:52:35;34.75;;;21.75;;
82711;SDS011;72433;41.992;21.438;2024-02-23T03:55:01;39.58;;;21.73;;
82711;SDS011;72433;41.992;21.438;2024-02-23T03:57:28;36.55;;;21.70;;
82711;SDS011;72433;41.992;21.438;2024-02-23T03:59:55;35.10;;;21.52;;
82711;SDS011;72433;41.992;21.438;2024-02-23T04:02:23;38.97;;;22.00;;
82711;SDS011;72433;41.992;21.438;2024-02-23T04:04:50;39.22;;;22.85;;
82711;SDS011;72433;41.992;21.438;2024-02-23T04:07:16;37.20;;;20.70;;
82711;SDS011;72433;41.992;21.438;2024-02-23T04:09:42;33.53;;;21.55;;
82711;SDS011;72433;41.992;21.438;2024-02-23T04:12:08;32.13;;;20.00;;
82711;SDS011;72433;41.992;21.438;2024-02-23T04:14:34;35.58;;;22.88;;
82711;SDS011;72433;41.992;21.438;2024-02-23T05:28:15;34.05;;;19.27;;
82711;SDS011;72433;41.992;21.438;2024-02-23T05:30:41;35.28;;;21.90;;
82711;SDS011;72433;41.992;21.438;2024-02-23T05:33:07;32.40;;;20.25;;
82711;SDS011;72433;41.992;21.438;2024-02-23T05:35:33;36.13;;;21.67;;
82711;SDS011;72433;41.992;21.438;2024-02-23T05:37:59;34.45;;;21.25;;
82711;SDS011;72433;41.992;21.438;2024-02-23T05:40:26;37.78;;;21.35;;
82711;SDS011;72433;41.992;21.438;2024-02-23T05:42:52;32.53;;;20.45;;
82711;SDS011;72433;41.992;21.438;2024-02-23T05:45:19;36.95;;;21.85;;
82711;SDS011;72433;41.992;21.438;2024-02-23T05:47:46;30.77;;;20.73;;
82711;SDS011;72433;41.992;21.438;2024-02-23T05:50:13;36.95;;;21.17;;
82711;SDS011;72433;41.992;21.438;2024-02-23T05:52:39;210.75;;;101.45;;
82711;SDS011;72433;41.992;21.438;2024-02-23T05:55:17;38.47;;;23.13;;
82711;SDS011;72433;41.992;21.438;2024-02-23T06:01:02;31.33;;;19.20;;
82711;SDS011;72433;41.992;21.438;2024-02-23T06:03:30;37.85;;;20.73;;
82711;SDS011;72433;41.992;21.438;2024-02-23T06:05:56;31.08;;;19.55;;
82711;SDS011;72433;41.992;21.438;2024-02-23T06:08:26;31.92;;;20.27;;
82711;SDS011;72433;41.992;21.438;2024-02-23T06:10:52;33.53;;;21.27;;
82711;SDS011;72433;41.992;21.438;2024-02-23T06:13:18;32.78;;;20.92;;
82711;SDS011;72433;41.992;21.438;2024-02-23T06:15:46;42.15;;;23.73;;
82711;SDS011;72433;41.992;21.438;2024-02-23T06:18:12;37.55;;;23.02;;
82711;SDS011;72433;41.992;21.438;2024-02-23T06:20:42;31.35;;;21.05;;
82711;SDS011;72433;41.992;21.438;2024-02-23T06:23:08;39.75;;;19.88;;
82711;SDS011;72433;41.992;21.438;2024-02-23T06:25:34;34.03;;;22.13;;
82711;SDS011;72433;41.992;21.438;2024-02-23T06:28:18;35.42;;;21.55;;
82711;SDS011;72433;41.992;21.438;2024-02-23T07:33:50;27.60;;;17.35;;
82711;SDS011;72433;41.992;21.438;2024-02-23T07:36:23;28.40;;;17.55;;
82711;SDS011;72433;41.992;21.438;2024-02-23T07:38:52;26.70;;;17.10;;
82711;SDS011;72433;41.992;21.438;2024-02-23T07:41:18;30.13;;;17.88;;
82711;SDS011;72433;41.992;21.438;2024-02-23T07:43:44;26.33;;;17.42;;
82711;SDS011;72433;41.992;21.438;2024-02-23T07:46:16;26.20;;;15.75;;
82711;SDS011;72433;41.992;21.438;2024-02-23T07:48:57;25.98;;;17.10;;
82711;SDS011;72433;41.992;21.438;2024-02-23T07:51:25;25.52;;;15.98;;
82711;SDS011;72433;41.992;21.438;2024-02-23T07:53:54;30.48;;;16.95;;
82711;SDS011;72433;41.992;21.438;2024-02-23T07:56:33;23.92;;;13.75;;
82711;SDS011;72433;41.992;21.438;2024-02-23T08:15:38;20.83;;;13.45;;
82711;SDS011;72433;41.992;21.438;2024-02-23T09:16:50;27.50;;;15.43;;
82711;SDS011;72433;41.992;21.438;2024-02-23T09:19:20;24.80;;;14.90;;
82711;SDS011;72433;41.992;21.438;2024-02-23T10:16:11;21.05;;;14.82;;
82711;SDS011;72433;41.992;21.438;2024-02-23T10:18:43;24.33;;;15.05;;
82711;SDS011;72433;41.992;21.438;2024-02-23T10:24:18;21.80;;;14.95;;
82711;SDS011;72433;41.992;21.438;2024-02-23T10:26:44;22.15;;;14.80;;
82711;SDS011;72433;41.992;21.438;2024-02-23T10:29:10;27.55;;;15.70;;
82711;SDS011;72433;41.992;21.438;2024-02-23T10:31:46;21.27;;;14.75;;
82711;SDS011;72433;41.992;21.438;2024-02-23T10:34:31;20.35;;;13.35;;
82711;SDS011;72433;41.992;21.438;2024-02-23T10:36:57;25.27;;;14.30;;
82711;SDS011;72433;41.992;21.438;2024-02-23T10:39:36;21.13;;;14.25;;
82711;SDS011;72433;41.992;21.438;2024-02-23T11:11:10;23.70;;;14.65;;
82711;SDS011;72433;41.992;21.438;2024-02-23T11:26:35;15.57;;;10.75;;
82711;SDS011;72433;41.992;21.438;2024-02-23T11:40:21;17.88;;;11.32;;
82711;SDS011;72433;41.992;21.438;2024-02-23T11:43:16;16.65;;;11.50;;
82711;SDS011;72433;41.992;21.438;2024-02-23T11:51:55;15.65;;;9.30;;
82711;SDS011;72433;41.992;21.438;2024-02-23T11:54:24;13.40;;;9.20;;
82711;SDS011;72433;41.992;21.438;2024-02-23T12:00:07;12.80;;;8.98;;
82711;SDS011;72433;41.992;21.438;2024-02-23T12:02:43;16.35;;;7.95;;
82711;SDS011;72433;41.992;21.438;2024-02-23T12:05:11;12.77;;;8.65;;
82711;SDS011;72433;41.992;21.438;2024-02-23T12:07:43;13.57;;;8.90;;
82711;SDS011;72433;41.992;21.438;2024-02-23T12:10:09;10.55;;;7.90;;
82711;SDS011;72433;41.992;21.438;2024-02-23T12:12:39;16.73;;;10.70;;
82711;SDS011;72433;41.992;21.438;2024-02-23T12:15:08;9.57;;;7.97;;
82711;SDS011;72433;41.992;21.438;2024-02-23T12:18:11;10.48;;;8.35;;
82711;SDS011;72433;41.992;21.438;2024-02-23T12:21:09;10.57;;;7.40;;
82711;SDS011;72433;41.992;21.438;2024-02-23T12:46:46;10.25;;;7.43;;
82711;SDS011;72433;41.992;21.438;2024-02-23T12:49:12;10.85;;;6.65;;
82711;SDS011;72433;41.992;21.438;2024-02-23T12:51:59;8.57;;;6.22;;
82711;SDS011;72433;41.992;21.438;2024-02-23T12:54:33;9.32;;;6.90;;
82711;SDS011;72433;41.992;21.438;2024-02-23T13:00:29;16.77;;;8.45;;
82711;SDS011;72433;41.992;21.438;2024-02-23T13:02:55;8.25;;;6.32;;
82711;SDS011;72433;41.992;21.438;2024-02-23T13:05:33;7.07;;;5.78;;
82711;SDS011;72433;41.992;21.438;2024-02-23T13:07:59;12.77;;;5.57;;
82711;SDS011;72433;41.992;21.438;2024-02-23T13:10:41;10.98;;;5.03;;
82711;SDS011;72433;41.992;21.438;2024-02-23T13:13:07;13.00;;;5.57;;
82711;SDS011;72433;41.992;21.438;2024-02-23T13:15:35;8.02;;;4.97;;
82711;SDS011;72433;41.992;21.438;2024-02-23T13:18:03;9.32;;;5.03;;
82711;SDS011;72433;41.992;21.438;2024-02-23T13:20:34;7.07;;;5.25;;
82711;SDS011;72433;41.992;21.438;2024-02-23T13:26:11;8.48;;;4.47;;
82711;SDS011;72433;41.992;21.438;2024-02-23T13:28:49;6.63;;;5.03;;
82711;SDS011;72433;41.992;21.438;2024-02-23T13:31:21;6.93;;;5.07;;
82711;SDS011;72433;41.992;21.438;2024-02-23T13:34:05;9.07;;;6.93;;
82711;SDS011;72433;41.992;21.438;2024-02-23T13:46:00;6.72;;;4.78;;
82711;SDS011;72433;41.992;21.438;2024-02-23T13:48:48;8.00;;;5.80;;
82711;SDS011;72433;41.992;21.438;2024-02-23T13:54:23;6.80;;;4.35;;
82711;SDS011;72433;41.992;21.438;2024-02-23T14:00:03;6.82;;;4.57;;
82711;SDS011;72433;41.992;21.438;2024-02-23T14:02:31;5.63;;;4.82;;
82711;SDS011;72433;41.992;21.438;2024-02-23T14:05:03;10.07;;;4.95;;
82711;SDS011;72433;41.992;21.438;2024-02-23T14:07:58;7.82;;;4.82;;
82711;SDS011;72433;41.992;21.438;2024-02-23T14:14:33;9.93;;;6.07;;
82711;SDS011;72433;41.992;21.438;2024-02-23T14:16:59;12.93;;;8.95;;
82711;SDS011;72433;41.992;21.438;2024-02-23T14:19:25;9.63;;;6.78;;
82711;SDS011;72433;41.992;21.438;2024-02-23T14:24:56;8.15;;;5.18;;
82711;SDS011;72433;41.992;21.438;2024-02-23T14:30:15;8.27;;;4.93;;
82711;SDS011;72433;41.992;21.438;2024-02-23T14:32:47;25.20;;;22.88;;
82711;SDS011;72433;41.992;21.438;2024-02-23T14:35:13;6.35;;;4.95;;
82711;SDS011;72433;41.992;21.438;2024-02-23T14:40:42;9.95;;;5.88;;
82711;SDS011;72433;41.992;21.438;2024-02-23T15:05:39;10.27;;;6.50;;
82711;SDS011;72433;41.992;21.438;2024-02-23T15:29:48;10.60;;;7.53;;
82711;SDS011;72433;41.992;21.438;2024-02-23T15:35:09;14.07;;;7.18;;
82711;SDS011;72433;41.992;21.438;2024-02-23T15:37:43;13.13;;;7.78;;
82711;SDS011;72433;41.992;21.438;2024-02-23T15:40:28;14.68;;;8.30;;
82711;SDS011;72433;41.992;21.438;2024-02-23T15:53:04;22.85;;;15.40;;
82711;SDS011;72433;41.992;21.438;2024-02-23T15:55:33;33.00;;;18.00;;
82711;SDS011;72433;41.992;21.438;2024-02-23T15:58:13;29.08;;;20.15;;
82711;SDS011;72433;41.992;21.438;2024-02-23T16:03:54;36.63;;;20.70;;
82711;SDS011;72433;41.992;21.438;2024-02-23T16:06:28;35.95;;;18.92;;
82711;SDS011;72433;41.992;21.438;2024-02-23T16:09:03;32.22;;;17.67;;
82711;SDS011;72433;41.992;21.438;2024-02-23T16:11:43;25.73;;;17.23;;
82711;SDS011;72433;41.992;21.438;2024-02-23T16:14:12;32.92;;;17.02;;
82711;SDS011;72433;41.992;21.438;2024-02-23T16:16:39;34.80;;;17.45;;
82711;SDS011;72433;41.992;21.438;2024-02-23T16:19:29;27.27;;;16.75;;
82711;SDS011;72433;41.992;21.438;2024-02-23T16:21:59;26.63;;;15.15;;
82711;SDS011;72433;41.992;21.438;2024-02-23T16:24:25;25.52;;;15.07;;
82711;SDS011;72433;41.992;21.438;2024-02-23T16:26:52;23.92;;;14.55;;
82711;SDS011;72433;41.992;21.438;2024-02-23T16:29:23;31.05;;;13.95;;
82711;SDS011;72433;41.992;21.438;2024-02-23T16:32:05;23.88;;;14.48;;
82711;SDS011;72433;41.992;21.438;2024-02-23T16:34:49;20.65;;;12.30;;
82711;SDS011;72433;41.992;21.438;2024-02-23T16:37:20;24.35;;;12.73;;
82711;SDS011;72433;41.992;21.438;2024-02-23T16:43:12;23.08;;;13.57;;
82711;SDS011;72433;41.992;21.438;2024-02-23T16:45:47;20.65;;;13.43;;
82711;SDS011;72433;41.992;21.438;2024-02-23T16:48:15;21.65;;;12.93;;
82711;SDS011;72433;41.992;21.438;2024-02-23T16:50:44;23.65;;;13.18;;
82711;SDS011;72433;41.992;21.438;2024-02-23T16:53:21;28.58;;;14.77;;
82711;SDS011;72433;41.992;21.438;2024-02-23T16:55:55;28.05;;;14.45;;
82711;SDS011;72433;41.992;21.438;2024-02-23T16:58:31;23.20;;;14.13;;
82711;SDS011;72433;41.992;21.438;2024-02-23T17:01:09;22.08;;;14.07;;
82711;SDS011;72433;41.992;21.438;2024-02-23T17:06:37;41.17;;;20.45;;
82711;SDS011;72433;41.992;21.438;2024-02-23T17:09:03;26.23;;;15.45;;
82711;SDS011;72433;41.992;21.438;2024-02-23T17:11:32;41.92;;;20.35;;
82711;SDS011;72433;41.992;21.438;2024-02-23T17:13:58;34.15;;;18.73;;
82711;SDS011;72433;41.992;21.438;2024-02-23T17:16:24;82.07;;;52.47;;
82711;SDS011;72433;41.992;21.438;2024-02-23T17:18:52;30.98;;;17.83;;
82711;SDS011;72433;41.992;21.438;2024-02-23T17:21:19;31.80;;;18.20;;
82711;SDS011;72433;41.992;21.438;2024-02-23T17:23:45;30.98;;;17.15;;
82711;SDS011;72433;41.992;21.438;2024-02-23T17:26:11;34.47;;;21.88;;
82711;SDS011;72433;41.992;21.438;2024-02-23T17:28:37;37.13;;;17.48;;
82711;SDS011;72433;41.992;21.438;2024-02-23T17:31:04;32.80;;;22.13;;
82711;SDS011;72433;41.992;21.438;2024-02-23T17:33:31;36.47;;;21.42;;
82711;SDS011;72433;41.992;21.438;2024-02-23T17:36:05;33.55;;;19.55;;
82711;SDS011;72433;41.992;21.438;2024-02-23T17:38:31;39.47;;;20.48;;
82711;SDS011;72433;41.992;21.438;2024-02-23T17:40:57;38.05;;;20.70;;
82711;SDS011;72433;41.992;21.438;2024-02-23T17:43:23;46.25;;;28.63;;
82711;SDS011;72433;41.992;21.438;2024-02-23T17:45:49;32.90;;;20.83;;
82711;SDS011;72433;41.992;21.438;2024-02-23T17:48:25;40.30;;;23.08;;
82711;SDS011;72433;41.992;21.438;2024-02-23T17:51:17;52.03;;;21.75;;
82711;SDS011;72433;41.992;21.438;2024-02-23T17:53:43;41.25;;;24.55;;
82711;SDS011;72433;41.992;21.438;2024-02-23T17:56:09;42.38;;;27.88;;
82711;SDS011;72433;41.992;21.438;2024-02-23T17:58:35;37.80;;;23.08;;
82711;SDS011;72433;41.992;21.438;2024-02-23T18:01:03;41.08;;;24.10;;
82711;SDS011;72433;41.992;21.438;2024-02-23T18:03:30;39.33;;;24.33;;
82711;SDS011;72433;41.992;21.438;2024-02-23T18:05:56;42.22;;;24.52;;
82711;SDS011;72433;41.992;21.438;2024-02-23T18:08:22;36.03;;;22.75;;
82711;SDS011;72433;41.992;21.438;2024-02-23T18:10:49;39.58;;;23.27;;
82711;SDS011;72433;41.992;21.438;2024-02-23T18:13:15;45.75;;;24.35;;
82711;SDS011;72433;41.992;21.438;2024-02-23T18:15:42;44.50;;;26.33;;
82711;SDS011;72433;41.992;21.438;2024-02-23T18:18:08;44.42;;;26.17;;
82711;SDS011;72433;41.992;21.438;2024-02-23T18:20:36;45.10;;;27.02;;
82711;SDS011;72433;41.992;21.438;2024-02-23T18:23:02;46.22;;;27.10;;
82711;SDS011;72433;41.992;21.438;2024-02-23T18:25:29;50.97;;;25.77;;
82711;SDS011;72433;41.992;21.438;2024-02-23T18:27:55;38.13;;;24.42;;
82711;SDS011;72433;41.992;21.438;2024-02-23T18:30:24;37.35;;;22.80;;
82711;SDS011;72433;41.992;21.438;2024-02-23T18:32:50;44.58;;;25.58;;
82711;SDS011;72433;41.992;21.438;2024-02-23T18:35:17;40.60;;;25.17;;
82711;SDS011;72433;41.992;21.438;2024-02-23T18:37:43;36.30;;;24.17;;
82711;SDS011;72433;41.992;21.438;2024-02-23T18:40:09;41.42;;;23.95;;
82711;SDS011;72433;41.992;21.438;2024-02-23T18:42:35;33.42;;;21.67;;
82711;SDS011;72433;41.992;21.438;2024-02-23T18:45:01;37.17;;;22.60;;
82711;SDS011;72433;41.992;21.438;2024-02-23T18:47:28;36.92;;;21.33;;
82711;SDS011;72433;41.992;21.438;2024-02-23T18:49:54;32.30;;;21.65;;
82711;SDS011;72433;41.992;21.438;2024-02-23T18:52:20;32.00;;;18.77;;
82711;SDS011;72433;41.992;21.438;2024-02-23T18:54:47;24.88;;;18.50;;
82711;SDS011;72433;41.992;21.438;2024-02-23T18:57:14;35.28;;;18.55;;
82711;SDS011;72433;41.992;21.438;2024-02-23T18:59:40;28.50;;;19.02;;
82711;SDS011;72433;41.992;21.438;2024-02-23T19:02:06;29.90;;;17.60;;
82711;SDS011;72433;41.992;21.438;2024-02-23T19:04:33;27.77;;;18.10;;
82711;SDS011;72433;41.992;21.438;2024-02-23T19:06:59;29.48;;;18.38;;
82711;SDS011;72433;41.992;21.438;2024-02-23T19:09:26;26.10;;;17.92;;
82711;SDS011;72433;41.992;21.438;2024-02-23T19:11:52;27.17;;;17.92;;
82711;SDS011;72433;41.992;21.438;2024-02-23T19:14:18;31.45;;;18.58;;
82711;SDS011;72433;41.992;21.438;2024-02-23T19:16:44;26.25;;;18.15;;
82711;SDS011;72433;41.992;21.438;2024-02-23T19:19:10;32.55;;;20.15;;
82711;SDS011;72433;41.992;21.438;2024-02-23T19:21:37;34.78;;;21.40;;
82711;SDS011;72433;41.992;21.438;2024-02-23T19:24:03;28.77;;;19.20;;
82711;SDS011;72433;41.992;21.438;2024-02-23T19:26:29;32.13;;;17.85;;
82711;SDS011;72433;41.992;21.438;2024-02-23T19:28:55;29.35;;;20.10;;
82711;SDS011;72433;41.992;21.438;2024-02-23T19:31:21;30.10;;;19.05;;
82711;SDS011;72433;41.992;21.438;2024-02-23T19:33:51;27.60;;;16.90;;
82711;SDS011;72433;41.992;21.438;2024-02-23T19:36:18;30.55;;;19.52;;
82711;SDS011;72433;41.992;21.438;2024-02-23T19:38:44;28.45;;;21.50;;
82711;SDS011;72433;41.992;21.438;2024-02-23T19:41:11;29.52;;;19.50;;
82711;SDS011;72433;41.992;21.438;2024-02-23T19:43:37;34.40;;;20.10;;
82711;SDS011;72433;41.992;21.438;2024-02-23T19:46:04;30.35;;;19.65;;
82711;SDS011;72433;41.992;21.438;2024-02-23T19:48:30;33.80;;;21.00;;
82711;SDS011;72433;41.992;21.438;2024-02-23T19:50:56;35.05;;;21.00;;
82711;SDS011;72433;41.992;21.438;2024-02-23T19:53:22;40.70;;;25.77;;
82711;SDS011;72433;41.992;21.438;2024-02-23T19:55:49;32.45;;;21.92;;
82711;SDS011;72433;41.992;21.438;2024-02-23T19:58:15;33.60;;;22.60;;
82711;SDS011;72433;41.992;21.438;2024-02-23T20:00:41;38.17;;;24.02;;
82711;SDS011;72433;41.992;21.438;2024-02-23T20:03:07;42.83;;;22.40;;
82711;SDS011;72433;41.992;21.438;2024-02-23T20:05:33;39.15;;;22.45;;
82711;SDS011;72433;41.992;21.438;2024-02-23T20:07:59;44.13;;;24.38;;
82711;SDS011;72433;41.992;21.438;2024-02-23T20:10:25;37.53;;;20.52;;
82711;SDS011;72433;41.992;21.438;2024-02-23T20:12:51;34.13;;;21.75;;
82711;SDS011;72433;41.992;21.438;2024-02-23T20:15:19;32.50;;;21.95;;
82711;SDS011;72433;41.992;21.438;2024-02-23T20:17:45;34.22;;;20.27;;
82711;SDS011;72433;41.992;21.438;2024-02-23T20:20:11;35.78;;;20.30;;
82711;SDS011;72433;41.992;21.438;2024-02-23T20:22:38;36.75;;;20.95;;
82711;SDS011;72433;41.992;21.438;2024-02-23T20:25:04;30.67;;;20.05;;
82711;SDS011;72433;41.992;21.438;2024-02-23T20:27:31;42.10;;;25.33;;
82711;SDS011;72433;41.992;21.438;2024-02-23T20:29:57;40.20;;;25.60;;
82711;SDS011;72433;41.992;21.438;2024-02-23T20:32:23;38.45;;;23.95;;
82711;SDS011;72433;41.992;21.438;2024-02-23T20:34:49;34.45;;;20.70;;
82711;SDS011;72433;41.992;21.438;2024-02-23T20:37:15;32.58;;;19.35;;
82711;SDS011;72433;41.992;21.438;2024-02-23T20:39:42;33.88;;;20.38;;
82711;SDS011;72433;41.992;21.438;2024-02-23T20:42:08;28.85;;;20.15;;
82711;SDS011;72433;41.992;21.438;2024-02-23T20:44:35;51.97;;;33.80;;
82711;SDS011;72433;41.992;21.438;2024-02-23T20:47:02;53.03;;;32.88;;
82711;SDS011;72433;41.992;21.438;2024-02-23T20:49:28;47.92;;;30.67;;
82711;SDS011;72433;41.992;21.438;2024-02-23T20:51:57;41.88;;;26.75;;
82711;SDS011;72433;41.992;21.438;2024-02-23T20:54:23;39.60;;;25.30;;
82711;SDS011;72433;41.992;21.438;2024-02-23T20:56:49;37.75;;;24.63;;
82711;SDS011;72433;41.992;21.438;2024-02-23T20:59:15;42.65;;;24.65;;
82711;SDS011;72433;41.992;21.438;2024-02-23T21:01:42;42.70;;;25.92;;
82711;SDS011;72433;41.992;21.438;2024-02-23T21:04:08;41.40;;;26.13;;
82711;SDS011;72433;41.992;21.438;2024-02-23T21:06:34;44.45;;;26.10;;
82711;SDS011;72433;41.992;21.438;2024-02-23T21:09:00;40.72;;;24.58;;
82711;SDS011;72433;41.992;21.438;2024-02-23T21:11:27;46.25;;;27.23;;
82711;SDS011;72433;41.992;21.438;2024-02-23T21:13:53;38.92;;;22.52;;
82711;SDS011;72433;41.992;21.438;2024-02-23T21:16:20;36.08;;;22.08;;
82711;SDS011;72433;41.992;21.438;2024-02-23T21:18:46;35.50;;;20.55;;
82711;SDS011;72433;41.992;21.438;2024-02-23T21:21:13;37.28;;;21.73;;
82711;SDS011;72433;41.992;21.438;2024-02-23T21:23:42;34.92;;;20.73;;
82711;SDS011;72433;41.992;21.438;2024-02-23T21:26:08;35.80;;;21.80;;
82711;SDS011;72433;41.992;21.438;2024-02-23T21:28:34;34.58;;;21.02;;
82711;SDS011;72433;41.992;21.438;2024-02-23T21:31:00;33.22;;;20.30;;
82711;SDS011;72433;41.992;21.438;2024-02-23T21:33:29;40.65;;;24.80;;
82711;SDS011;72433;41.992;21.438;2024-02-23T21:35:58;30.77;;;20.45;;
82711;SDS011;72433;41.992;21.438;2024-02-23T21:38:25;38.20;;;22.00;;
82711;SDS011;72433;41.992;21.438;2024-02-23T21:40:51;40.72;;;22.02;;
82711;SDS011;72433;41.992;21.438;2024-02-23T21:43:17;34.78;;;21.48;;
82711;SDS011;72433;41.992;21.438;2024-02-23T21:45:43;41.30;;;22.75;;
82711;SDS011;72433;41.992;21.438;2024-02-23T21:48:09;47.70;;;30.20;;
82711;SDS011;72433;41.992;21.438;2024-02-23T21:50:35;56.22;;;38.63;;
82711;SDS011;72433;41.992;21.438;2024-02-23T21:53:01;44.05;;;27.48;;
82711;SDS011;72433;41.992;21.438;2024-02-23T21:55:28;42.08;;;27.90;;